createdAt,value
2023-03-10T00:00:09.420Z,98666.51
2023-03-10T00:03:01.276Z,98652.63
2023-03-10T00:05:33.095Z,98655.07
2023-03-10T00:08:05.073Z,98646.52
2023-03-10T00:10:36.898Z,98644.09
2023-03-10T00:13:08.687Z,98639.99
2023-03-10T00:15:40.596Z,98641.80
2023-03-10T00:18:12.794Z,98642.80
2023-03-10T00:20:44.669Z,98640.69
2023-03-10T00:23:16.893Z,98638.13
2023-03-10T00:25:56.649Z,98633.29
2023-03-10T00:28:29.342Z,98622.89
2023-03-10T00:31:04.851Z,98624.15
2023-03-10T00:33:37.195Z,98622.83
2023-03-10T00:36:12.102Z,98618.45
2023-03-10T00:38:44.825Z,98617.31
2023-03-10T00:41:15.817Z,98611.61
2023-03-10T00:43:47.921Z,98609.65
2023-03-10T00:46:20.049Z,98602.27
2023-03-10T00:48:52.262Z,98598.89
2023-03-10T00:51:24.636Z,98591.09
2023-03-10T00:53:56.412Z,98580.30
2023-03-10T00:56:30.643Z,98570.17
2023-03-10T00:59:02.690Z,98570.67
2023-03-10T01:01:36.883Z,98560.65
2023-03-10T01:04:10.852Z,98547.34
2023-03-10T01:06:44.576Z,98538.87
2023-03-10T01:09:16.528Z,98536.30
2023-03-10T01:11:49.070Z,98532.23
2023-03-10T01:14:22.029Z,98534.67
2023-03-10T01:16:52.328Z,98540.84
2023-03-10T01:19:26.003Z,98539.63
2023-03-10T01:21:57.795Z,98538.45
2023-03-10T01:24:29.668Z,98530.87
2023-03-10T01:27:01.431Z,98530.52
2023-03-10T01:29:33.234Z,98533.23
2023-03-10T01:32:05.128Z,98524.71
2023-03-10T01:34:36.926Z,98507.33
2023-03-10T01:37:08.973Z,98506.38
2023-03-10T01:39:40.729Z,98498.70
2023-03-10T01:42:12.840Z,98500.11
2023-03-10T01:45:04.105Z,98503.87
2023-03-10T01:47:35.847Z,98502.79
2023-03-10T01:50:10.771Z,98502.00
2023-03-10T01:52:45.200Z,98499.73
2023-03-10T01:55:20.942Z,98488.87
2023-03-10T01:57:54.960Z,98477.64
2023-03-10T02:00:29.444Z,98478.92
2023-03-10T02:03:08.812Z,98467.68
2023-03-10T02:05:44.908Z,98455.54
2023-03-10T02:08:19.348Z,98452.16
2023-03-10T02:10:52.499Z,98447.83
2023-03-10T02:13:24.439Z,98437.57
2023-03-10T02:15:56.261Z,98432.34
2023-03-10T02:18:29.434Z,98429.06
2023-03-10T02:21:11.387Z,98431.38
2023-03-10T02:24:01.112Z,98423.76
2023-03-10T02:26:43.198Z,98413.29
2023-03-10T02:29:22.649Z,98403.70
2023-03-10T02:31:55.926Z,98399.25
2023-03-10T02:34:29.205Z,98390.16
2023-03-10T02:37:01.092Z,98387.53
2023-03-10T02:39:32.937Z,98383.71
2023-03-10T02:42:06.431Z,98380.36
2023-03-10T02:44:39.670Z,98377.83
2023-03-10T02:47:11.579Z,98375.69
2023-03-10T02:49:44.201Z,98373.30
2023-03-10T02:52:32.778Z,98361.06
2023-03-10T02:55:04.816Z,98356.72
2023-03-10T02:57:36.636Z,98347.83
2023-03-10T03:00:11.254Z,98342.06
2023-03-10T03:02:43.150Z,98335.70
2023-03-10T03:05:15.062Z,98331.11
2023-03-10T03:07:48.176Z,98322.02
2023-03-10T03:10:21.476Z,98314.52
2023-03-10T03:12:56.068Z,98307.52
2023-03-10T03:15:28.481Z,98301.80
2023-03-10T03:17:59.494Z,98292.50
2023-03-10T03:20:33.257Z,98295.38
2023-03-10T03:23:05.413Z,98281.30
2023-03-10T03:25:40.458Z,98275.04
2023-03-10T03:28:14.582Z,98264.51
2023-03-10T03:30:48.675Z,98259.46
2023-03-10T03:33:20.534Z,98255.95
2023-03-10T03:35:52.344Z,98251.40
2023-03-10T03:38:24.406Z,98247.84
2023-03-10T03:40:57.452Z,98240.05
2023-03-10T03:43:29.546Z,98244.66
2023-03-10T03:46:01.636Z,98244.06
2023-03-10T03:48:34.769Z,98238.80
2023-03-10T03:51:08.080Z,98236.24
2023-03-10T03:53:43.654Z,98228.11
2023-03-10T03:56:16.516Z,98221.02
2023-03-10T03:58:48.996Z,98218.73
2023-03-10T04:01:21.102Z,98212.64
2023-03-10T04:03:55.448Z,98209.30
2023-03-10T04:06:27.940Z,98204.98
2023-03-10T04:08:59.989Z,98197.09
2023-03-10T04:11:31.025Z,98192.08
2023-03-10T04:14:03.225Z,98186.51
2023-03-10T04:16:35.680Z,98172.25
2023-03-10T04:19:08.784Z,98168.13
2023-03-10T04:21:42.938Z,98163.73
2023-03-10T04:24:14.886Z,98163.66
2023-03-10T04:26:47.170Z,98161.27
2023-03-10T04:29:19.072Z,98158.22
2023-03-10T04:32:04.725Z,98148.70
2023-03-10T04:34:38.688Z,98143.39
2023-03-10T04:37:10.908Z,98140.73
2023-03-10T04:39:43.091Z,98133.33
2023-03-10T04:42:15.691Z,98131.41
2023-03-10T04:44:47.501Z,98123.70
2023-03-10T04:47:19.582Z,98127.05
2023-03-10T04:49:52.200Z,98127.70
2023-03-10T04:52:25.126Z,98124.21
2023-03-10T04:54:57.337Z,98113.52
2023-03-10T04:57:30.051Z,98110.34
2023-03-10T05:00:03.328Z,98102.42
2023-03-10T05:02:37.551Z,98102.52
2023-03-10T05:05:10.630Z,98095.14
2023-03-10T05:07:44.083Z,98092.54
2023-03-10T05:10:16.823Z,98088.23
2023-03-10T05:12:48.924Z,98084.63
2023-03-10T05:15:21.260Z,98084.52
2023-03-10T05:17:54.122Z,98078.64
2023-03-10T05:20:26.659Z,98068.17
2023-03-10T05:22:58.904Z,98061.54
2023-03-10T05:25:31.243Z,98039.92
2023-03-10T05:28:03.679Z,98057.55
2023-03-10T05:30:37.385Z,98055.92
2023-03-10T05:33:09.562Z,98048.31
2023-03-10T05:35:41.984Z,98050.27
2023-03-10T05:38:14.155Z,98042.89
2023-03-10T05:40:46.050Z,98038.02
2023-03-10T05:43:18.362Z,98031.14
2023-03-10T05:45:59.401Z,98028.50
2023-03-10T05:48:32.430Z,98029.82
2023-03-10T05:51:03.484Z,98028.92
2023-03-10T05:53:37.164Z,98018.15
2023-03-10T05:56:11.496Z,98019.10
2023-03-10T05:58:44.626Z,98019.52
2023-03-10T06:01:17.494Z,98016.25
2023-03-10T06:03:49.376Z,98010.81
2023-03-10T06:06:21.358Z,98009.22
2023-03-10T06:08:53.224Z,98008.95
2023-03-10T06:11:25.312Z,98005.45
2023-03-10T06:13:58.072Z,97997.26
2023-03-10T06:16:30.860Z,97986.33
2023-03-10T06:19:02.656Z,97981.74
2023-03-10T06:21:34.493Z,97980.66
2023-03-10T06:24:06.589Z,97978.02
2023-03-10T06:26:38.603Z,97975.98
2023-03-10T06:29:10.738Z,97976.56
2023-03-10T06:31:43.048Z,97972.50
2023-03-10T06:34:14.838Z,97971.66
2023-03-10T06:36:46.769Z,97967.59
2023-03-10T06:39:18.600Z,97967.13
2023-03-10T06:41:50.388Z,97966.41
2023-03-10T06:44:22.307Z,97963.02
2023-03-10T06:46:54.096Z,97959.25
2023-03-10T06:49:29.262Z,97961.80
2023-03-10T06:52:01.629Z,97962.95
2023-03-10T06:54:33.912Z,97957.45
2023-03-10T06:57:06.941Z,97949.07
2023-03-10T06:59:38.838Z,97949.11
2023-03-10T07:02:13.538Z,97947.38
2023-03-10T07:04:45.581Z,97948.34
2023-03-10T07:07:17.450Z,97943.58
2023-03-10T07:09:49.322Z,97948.23
2023-03-10T07:12:21.135Z,97941.83
2023-03-10T07:14:53.152Z,97943.90
2023-03-10T07:17:24.914Z,97936.09
2023-03-10T07:19:56.945Z,97931.83
2023-03-10T07:22:28.972Z,97928.63
2023-03-10T07:25:00.816Z,97927.66
2023-03-10T07:27:33.773Z,97923.56
2023-03-10T07:30:06.616Z,97916.13
2023-03-10T07:32:38.578Z,97914.31
2023-03-10T07:35:11.852Z,97913.05
2023-03-10T07:37:43.602Z,97909.69
2023-03-10T07:40:15.890Z,97908.44
2023-03-10T07:42:47.670Z,97906.61
2023-03-10T07:45:20.329Z,97908.42
2023-03-10T07:47:52.836Z,97910.23
2023-03-10T07:50:24.850Z,97912.55
2023-03-10T07:52:56.730Z,97907.04
2023-03-10T07:55:28.536Z,97907.92
2023-03-10T07:58:01.131Z,97905.91
2023-03-10T08:00:32.911Z,97906.27
2023-03-10T08:03:04.811Z,97914.17
2023-03-10T08:05:40.156Z,97910.37
2023-03-10T08:08:12.272Z,97911.56
2023-03-10T08:10:44.120Z,97908.52
2023-03-10T08:13:16.087Z,97914.40
2023-03-10T08:15:48.039Z,97915.10
2023-03-10T08:18:20.066Z,97907.17
2023-03-10T08:20:51.912Z,97899.41
2023-03-10T08:23:41.669Z,97902.28
2023-03-10T08:26:17.901Z,97901.79
2023-03-10T08:28:50.521Z,97904.23
2023-03-10T08:31:23.349Z,97905.52
2023-03-10T08:33:58.513Z,97909.38
2023-03-10T08:36:32.526Z,97911.20
2023-03-10T08:39:05.720Z,97910.27
2023-03-10T08:41:39.778Z,97906.45
2023-03-10T08:44:15.257Z,97905.23
2023-03-10T08:46:49.809Z,97899.14
2023-03-10T08:49:23.109Z,97905.92
2023-03-10T08:51:55.133Z,97904.92
2023-03-10T08:54:27.065Z,97901.65
2023-03-10T08:56:59.447Z,97904.77
2023-03-10T08:59:31.504Z,97902.42
2023-03-10T09:02:03.526Z,97898.66
2023-03-10T09:04:35.634Z,97897.11
2023-03-10T09:07:07.730Z,97902.84
2023-03-10T09:09:39.663Z,97899.44
2023-03-10T09:12:12.423Z,97894.29
2023-03-10T09:14:42.594Z,97896.77
2023-03-10T09:17:14.424Z,97896.80
2023-03-10T09:19:46.340Z,97899.02
2023-03-10T09:22:18.511Z,97900.23
2023-03-10T09:24:50.344Z,97898.84
2023-03-10T09:27:22.455Z,97897.53
2023-03-10T09:29:54.220Z,97902.20
2023-03-10T09:32:26.286Z,97896.55
2023-03-10T09:34:58.254Z,97899.73
2023-03-10T09:37:30.197Z,97900.45
2023-03-10T09:40:03.797Z,97899.27
2023-03-10T09:42:42.183Z,97902.65
2023-03-10T09:45:25.302Z,97901.12
2023-03-10T09:48:08.669Z,97900.05
2023-03-10T09:50:44.642Z,97892.26
2023-03-10T09:53:39.874Z,97895.46
2023-03-10T09:56:16.807Z,97889.55
2023-03-10T09:58:51.970Z,97886.93
2023-03-10T10:01:26.509Z,97890.11
2023-03-10T10:04:01.707Z,97883.27
2023-03-10T10:06:37.991Z,97888.02
2023-03-10T10:09:16.425Z,97882.80
2023-03-10T10:11:48.685Z,97889.92
2023-03-10T10:14:31.457Z,97883.86
2023-03-10T10:17:10.701Z,97878.06
2023-03-10T10:19:43.021Z,97880.45
2023-03-10T10:22:24.438Z,97883.38
2023-03-10T10:25:08.310Z,97876.97
2023-03-10T10:27:41.871Z,97880.98
2023-03-10T10:30:33.140Z,97884.23
2023-03-10T10:33:07.730Z,97881.83
2023-03-10T10:35:41.538Z,97878.11
2023-03-10T10:38:27.107Z,97874.08
2023-03-10T10:41:07.006Z,97877.23
2023-03-10T10:43:45.534Z,97881.27
2023-03-10T10:46:26.030Z,97869.88
2023-03-10T10:49:07.602Z,97861.44
2023-03-10T10:51:39.629Z,97867.35
2023-03-10T10:54:28.464Z,97865.98
2023-03-10T10:57:02.463Z,97864.96
2023-03-10T10:59:36.501Z,97869.73
2023-03-10T11:02:28.150Z,97872.47
2023-03-10T11:05:14.422Z,97864.06
2023-03-10T11:07:46.451Z,97869.22
2023-03-10T11:10:20.817Z,97866.24
2023-03-10T11:13:14.212Z,97872.39
2023-03-10T11:15:55.854Z,97867.31
2023-03-10T11:18:32.998Z,97861.46
2023-03-10T11:21:13.216Z,97858.17
2023-03-10T11:23:51.750Z,97857.71
2023-03-10T11:26:44.642Z,97859.33
2023-03-10T11:29:20.185Z,97855.65
2023-03-10T11:31:56.294Z,97861.36
2023-03-10T11:34:32.884Z,97866.90
2023-03-10T11:37:16.922Z,97862.17
2023-03-10T11:40:07.471Z,97859.49
2023-03-10T11:42:48.368Z,97862.57
2023-03-10T11:45:28.607Z,97851.58
2023-03-10T11:48:27.059Z,97857.05
2023-03-10T11:51:00.967Z,97854.98
2023-03-10T11:53:39.294Z,97851.29
2023-03-10T11:56:12.481Z,97853.61
2023-03-10T11:58:52.975Z,97848.70
2023-03-10T12:01:30.673Z,97853.48
2023-03-10T12:04:10.517Z,97850.80
2023-03-10T12:06:49.126Z,97849.27
2023-03-10T12:09:31.215Z,97851.83
2023-03-10T12:12:06.221Z,97851.13
2023-03-10T12:14:38.470Z,97852.73
2023-03-10T12:17:14.538Z,97854.73
2023-03-10T12:20:11.995Z,97848.27
2023-03-10T12:22:46.620Z,97843.30
2023-03-10T12:25:46.851Z,97846.58
2023-03-10T12:28:27.913Z,97843.63
2023-03-10T12:31:01.626Z,97845.23
2023-03-10T12:34:09.145Z,97841.45
2023-03-10T12:36:45.003Z,97842.41
2023-03-10T12:39:39.766Z,97843.17
2023-03-10T12:42:29.486Z,97846.52
2023-03-10T12:45:24.192Z,97847.06
2023-03-10T12:48:07.551Z,97847.41
2023-03-10T12:50:52.629Z,97850.51
2023-03-10T12:53:38.882Z,97855.84
2023-03-10T12:56:23.665Z,97858.45
2023-03-10T12:59:05.395Z,97856.44
2023-03-10T13:01:55.160Z,97855.84
2023-03-10T13:04:29.193Z,97849.11
2023-03-10T13:07:03.884Z,97851.95
2023-03-10T13:09:42.358Z,97850.14
2023-03-10T13:12:21.462Z,97848.23
2023-03-10T13:14:58.278Z,97851.41
2023-03-10T13:17:31.915Z,97841.73
2023-03-10T13:20:09.520Z,97845.23
2023-03-10T13:22:43.394Z,97842.50
2023-03-10T13:25:17.241Z,97847.67
2023-03-10T13:27:49.104Z,97850.11
2023-03-10T13:30:26.678Z,97845.15
2023-03-10T13:33:01.369Z,97839.64
2023-03-10T13:35:36.295Z,97841.95
2023-03-10T13:38:13.282Z,97838.58
2023-03-10T13:40:47.553Z,97842.68
2023-03-10T13:43:38.836Z,97838.73
2023-03-10T13:46:18.463Z,97843.45
2023-03-10T13:48:51.865Z,97845.23
2023-03-10T13:51:25.833Z,97838.77
2023-03-10T13:54:11.774Z,97848.16
2023-03-10T13:56:45.019Z,97850.63
2023-03-10T13:59:21.002Z,97848.73
2023-03-10T14:01:56.450Z,97852.13
2023-03-10T14:04:47.584Z,97848.52
2023-03-10T14:07:21.576Z,97851.23
2023-03-10T14:10:14.947Z,97845.73
2023-03-10T14:12:48.786Z,97848.25
2023-03-10T14:15:27.301Z,97853.70
2023-03-10T14:18:19.474Z,97849.64
2023-03-10T14:20:51.384Z,97850.06
2023-03-10T14:23:29.136Z,97853.81
2023-03-10T14:26:02.006Z,97847.81
2023-03-10T14:28:34.751Z,97839.15
2023-03-10T14:31:06.827Z,97845.20
2023-03-10T14:33:40.544Z,97843.58
2023-03-10T14:36:13.845Z,97837.95
2023-03-10T14:38:48.464Z,97836.26
2023-03-10T14:41:24.112Z,97842.56
2023-03-10T14:43:56.183Z,97839.11
2023-03-10T14:46:28.610Z,97833.11
2023-03-10T14:49:00.715Z,97845.08
2023-03-10T14:51:35.841Z,97845.92
2023-03-10T14:54:17.503Z,97838.14
2023-03-10T14:56:53.697Z,97838.04
2023-03-10T14:59:26.243Z,97826.91
2023-03-10T15:02:00.482Z,97815.87
2023-03-10T15:04:32.552Z,97817.35
2023-03-10T15:07:04.769Z,97816.27
2023-03-10T15:09:36.675Z,97810.60
2023-03-10T15:12:09.581Z,97803.34
2023-03-10T15:14:41.749Z,97813.53
2023-03-10T15:17:15.273Z,97809.88
2023-03-10T15:19:47.249Z,97815.05
2023-03-10T15:22:19.706Z,97811.61
2023-03-10T15:24:51.697Z,97807.16
2023-03-10T15:27:23.516Z,97809.67
2023-03-10T15:29:55.409Z,97808.96
2023-03-10T15:32:27.504Z,97813.36
2023-03-10T15:35:00.299Z,97810.27
2023-03-10T15:37:32.244Z,97810.57
2023-03-10T15:40:05.069Z,97810.86
2023-03-10T15:42:37.425Z,97811.50
2023-03-10T15:45:10.952Z,97804.60
2023-03-10T15:47:42.966Z,97806.65
2023-03-10T15:50:16.640Z,97810.33
2023-03-10T15:52:50.749Z,97802.02
2023-03-10T15:55:23.493Z,97808.05
2023-03-10T15:57:54.352Z,97800.65
2023-03-10T16:00:27.903Z,97805.19
2023-03-10T16:02:59.701Z,97806.49
2023-03-10T16:05:32.152Z,97803.32
2023-03-10T16:08:06.271Z,97807.09
2023-03-10T16:10:39.870Z,97803.85
2023-03-10T16:13:11.553Z,97800.28
2023-03-10T16:15:43.682Z,97800.71
2023-03-10T16:18:15.729Z,97803.52
2023-03-10T16:20:55.411Z,97820.39
2023-03-10T16:23:27.906Z,97824.14
2023-03-10T16:26:08.622Z,97820.82
2023-03-10T16:28:42.129Z,97820.64
2023-03-10T16:31:15.860Z,97823.79
2023-03-10T16:33:48.614Z,97832.70
2023-03-10T16:36:22.110Z,97834.80
2023-03-10T16:38:54.430Z,97834.22
2023-03-10T16:41:28.524Z,97835.21
2023-03-10T16:44:04.391Z,97837.95
2023-03-10T16:46:36.397Z,97841.52
2023-03-10T16:49:08.777Z,97842.69
2023-03-10T16:51:42.414Z,97844.09
2023-03-10T16:54:16.881Z,97838.40
2023-03-10T16:56:51.133Z,97840.28
2023-03-10T16:59:25.086Z,97837.14
2023-03-10T17:01:57.560Z,97839.02
2023-03-10T17:04:29.822Z,97840.54
2023-03-10T17:07:02.291Z,97835.95
2023-03-10T17:09:35.693Z,97834.66
2023-03-10T17:12:09.766Z,97831.89
2023-03-10T17:14:44.156Z,97832.42
2023-03-10T17:17:16.859Z,97828.58
2023-03-10T17:19:52.646Z,97826.88
2023-03-10T17:22:25.300Z,97824.06
2023-03-10T17:25:00.762Z,97823.52
2023-03-10T17:27:33.419Z,97817.17
2023-03-10T17:30:06.592Z,97809.29
2023-03-10T17:32:39.205Z,97805.16
2023-03-10T17:35:13.356Z,97811.34
2023-03-10T17:37:47.860Z,97809.89
2023-03-10T17:40:22.947Z,97804.77
2023-03-10T17:42:57.850Z,97803.33
2023-03-10T17:45:32.816Z,97801.91
2023-03-10T17:48:05.022Z,97803.73
2023-03-10T17:50:37.389Z,97803.66
2023-03-10T17:53:09.800Z,97794.83
2023-03-10T17:55:40.759Z,97789.20
2023-03-10T17:58:13.325Z,97784.45
2023-03-10T18:00:46.204Z,97784.17
2023-03-10T18:03:17.669Z,97782.33
2023-03-10T18:05:50.319Z,97785.15
2023-03-10T18:08:23.282Z,97777.75
2023-03-10T18:11:04.443Z,97777.35
2023-03-10T18:13:37.509Z,97781.21
2023-03-10T18:16:20.882Z,97770.74
2023-03-10T18:18:54.752Z,97767.94
2023-03-10T18:21:28.390Z,97765.61
2023-03-10T18:24:01.152Z,97764.80
2023-03-10T18:26:32.013Z,97767.55
2023-03-10T18:29:04.276Z,97768.60
2023-03-10T18:31:37.556Z,97771.66
2023-03-10T18:34:10.242Z,97770.92
2023-03-10T18:36:42.709Z,97771.02
2023-03-10T18:39:15.019Z,97765.85
2023-03-10T18:41:47.399Z,97762.79
2023-03-10T18:44:19.670Z,97754.14
2023-03-10T18:46:51.918Z,97752.55
2023-03-10T18:49:24.799Z,97754.14
2023-03-10T18:51:57.241Z,97750.10
2023-03-10T18:54:30.555Z,97743.98
2023-03-10T18:57:06.280Z,97743.59
2023-03-10T18:59:40.450Z,97743.76
2023-03-10T19:02:16.526Z,97741.81
2023-03-10T19:04:49.124Z,97731.09
2023-03-10T19:07:22.994Z,97725.95
2023-03-10T19:09:56.826Z,97725.27
2023-03-10T19:12:29.410Z,97727.77
2023-03-10T19:15:05.402Z,97717.33
2023-03-10T19:17:39.754Z,97703.82
2023-03-10T19:20:15.669Z,97716.28
2023-03-10T19:22:51.145Z,97727.61
2023-03-10T19:25:25.784Z,97730.05
2023-03-10T19:27:58.328Z,97732.10
2023-03-10T19:30:31.763Z,97742.08
2023-03-10T19:33:03.955Z,97753.88
2023-03-10T19:35:35.831Z,97753.99
2023-03-10T19:38:09.020Z,97740.61
2023-03-10T19:40:41.421Z,97748.36
2023-03-10T19:43:13.297Z,97757.70
2023-03-10T19:45:45.784Z,97745.80
2023-03-10T19:48:17.510Z,97748.52
2023-03-10T19:50:55.411Z,97751.95
2023-03-10T19:53:28.847Z,97755.04
2023-03-10T19:56:03.721Z,97753.47
2023-03-10T19:58:38.145Z,97736.73
2023-03-10T20:01:14.740Z,97730.80
2023-03-10T20:03:47.137Z,97730.38
2023-03-10T20:06:18.113Z,97735.40
2023-03-10T20:08:52.088Z,97731.75
2023-03-10T20:11:24.748Z,97729.17
2023-03-10T20:13:56.922Z,97723.70
2023-03-10T20:16:28.929Z,97717.76
2023-03-10T20:19:01.107Z,97704.25
2023-03-10T20:21:33.173Z,97702.61
2023-03-10T20:24:05.487Z,97698.61
2023-03-10T20:26:37.798Z,97696.70
2023-03-10T20:29:09.888Z,97693.49
2023-03-10T20:31:41.854Z,97687.77
2023-03-10T20:34:22.132Z,97679.52
2023-03-10T20:36:54.424Z,97672.34
2023-03-10T20:39:27.124Z,97675.27
2023-03-10T20:41:57.440Z,97679.98
2023-03-10T20:44:29.344Z,97680.98
2023-03-10T20:47:01.119Z,97675.47
2023-03-10T20:49:33.337Z,97673.31
2023-03-10T20:52:05.515Z,97671.41
2023-03-10T20:54:37.720Z,97673.76
2023-03-10T20:57:10.203Z,97677.73
2023-03-10T20:59:42.792Z,97684.09
2023-03-10T21:02:16.986Z,97686.38
2023-03-10T21:04:49.500Z,97690.85
2023-03-10T21:07:21.338Z,97692.91
2023-03-10T21:09:53.190Z,97695.01
2023-03-10T21:12:25.161Z,97688.37
2023-03-10T21:14:56.941Z,97686.34
2023-03-10T21:17:29.381Z,97682.19
2023-03-10T21:20:01.326Z,97680.91
2023-03-10T21:22:35.254Z,97677.80
2023-03-10T21:25:09.875Z,97679.96
2023-03-10T21:27:42.205Z,97678.19
2023-03-10T21:30:17.088Z,97679.83
2023-03-10T21:32:49.056Z,97680.78
2023-03-10T21:35:21.395Z,97674.48
2023-03-10T21:37:55.485Z,97679.47
2023-03-10T21:40:28.012Z,97671.94
2023-03-10T21:43:02.540Z,97674.23
2023-03-10T21:45:37.644Z,97669.88
2023-03-10T21:48:11.582Z,97660.84
2023-03-10T21:50:43.478Z,97665.77
2023-03-10T21:53:15.497Z,97666.91
2023-03-10T21:55:47.428Z,97667.10
2023-03-10T21:58:19.839Z,97666.12
2023-03-10T22:00:55.722Z,97667.88
2023-03-10T22:03:27.976Z,97670.37
2023-03-10T22:05:59.850Z,97671.39
2023-03-10T22:08:31.730Z,97667.13
2023-03-10T22:11:06.210Z,97659.16
2023-03-10T22:13:38.991Z,97661.60
2023-03-10T22:16:10.653Z,97663.77
2023-03-10T22:18:42.593Z,97659.23
2023-03-10T22:21:14.647Z,97656.27
2023-03-10T22:23:46.640Z,97655.46
2023-03-10T22:26:18.395Z,97656.85
2023-03-10T22:28:50.178Z,97654.00
2023-03-10T22:31:23.755Z,97652.55
2023-03-10T22:33:55.846Z,97650.85
2023-03-10T22:36:27.856Z,97648.47
2023-03-10T22:39:00.401Z,97649.52
2023-03-10T22:41:31.036Z,97652.88
2023-03-10T22:44:02.973Z,97648.67
2023-03-10T22:46:35.352Z,97648.22
2023-03-10T22:49:07.638Z,97647.54
2023-03-10T22:51:39.924Z,97642.09
2023-03-10T22:54:12.008Z,97637.11
2023-03-10T22:56:43.904Z,97638.66
2023-03-10T22:59:15.915Z,97634.37
2023-03-10T23:01:47.824Z,97635.46
2023-03-10T23:04:20.210Z,97631.35
2023-03-10T23:06:52.089Z,97632.45
2023-03-10T23:09:23.984Z,97628.66
2023-03-10T23:11:55.776Z,97627.51
2023-03-10T23:14:27.623Z,97630.23
2023-03-10T23:16:59.444Z,97628.67
2023-03-10T23:19:31.200Z,97623.50
2023-03-10T23:22:03.680Z,97624.79
2023-03-10T23:24:35.518Z,97616.84
2023-03-10T23:27:07.715Z,97615.82
2023-03-10T23:29:39.545Z,97612.89
2023-03-10T23:32:11.731Z,97610.17
2023-03-10T23:34:43.917Z,97612.16
2023-03-10T23:37:18.749Z,97612.65
2023-03-10T23:39:51.086Z,97609.50
2023-03-10T23:42:23.064Z,97612.26
2023-03-10T23:44:54.835Z,97616.41
2023-03-10T23:47:27.041Z,97614.41
2023-03-10T23:49:59.542Z,97612.61
2023-03-10T23:52:32.006Z,97614.19
2023-03-10T23:55:02.479Z,97606.45
2023-03-10T23:57:34.280Z,97603.00
